CYQD

The Pas Airport

The Pas, Manitoba, Canada

CYQD 110900Z 34016G24KT 15SM -SN DRSN OVC015 M10/M13 A3012 RMK SC8 PRESRR SLP223

Observed Flight Rules
Dec-11 @ 09:00 UTC (33 minutes ago) Marginal Visual Flight Rules
Wind Visibility Clouds Conditions
340° at 16 knots
 Gusting to 24 knots
15 miles
  • Overcast at 1,500' AGL
  • Light Snow
  • Low drifting
  • Snow
Temperatures Readings
Current -10°C / 14°F
Dewpoint -13°C / 9°F
Humidity 79%
Altimeter 30.12" Hg
Pressure 1022.3 hPa
Elevation 271
Observed Flight Rules
Dec-11 @ 09:00 UTC
(33 minutes ago)
MVFR
Wind Visibility
340° at 16 knots
 Gusting to 24 knots
15 miles
Clouds
  • Overcast at 1,500' AGL
Conditions
  • Light Snow
  • Low drifting
  • Snow
Temperature Dewpoint
-10°C / 14°F -13°C / 9°F
Humidity Altimeter Pressure
79% 30.12" Hg 1022.3 hPa